sensor_id;sensor_type;location;lat;lon;timestamp;P1;durP1;ratioP1;P2;durP2;ratioP2
71558;SDS011;59382;43.852;25.952;2022-07-29T00:00:03;13.27;;;7.35;;
71558;SDS011;59382;43.852;25.952;2022-07-29T00:02:32;8.77;;;6.28;;
71558;SDS011;59382;43.852;25.952;2022-07-29T00:04:58;12.90;;;6.85;;
71558;SDS011;59382;43.852;25.952;2022-07-29T00:07:23;8.77;;;6.15;;
71558;SDS011;59382;43.852;25.952;2022-07-29T00:09:49;13.38;;;6.38;;
71558;SDS011;59382;43.852;25.952;2022-07-29T00:12:15;10.68;;;6.25;;
71558;SDS011;59382;43.852;25.952;2022-07-29T00:14:41;10.02;;;6.30;;
71558;SDS011;59382;43.852;25.952;2022-07-29T00:17:06;12.00;;;7.78;;
71558;SDS011;59382;43.852;25.952;2022-07-29T00:19:33;12.82;;;6.53;;
71558;SDS011;59382;43.852;25.952;2022-07-29T00:21:59;9.10;;;7.03;;
71558;SDS011;59382;43.852;25.952;2022-07-29T00:24:25;9.23;;;6.13;;
71558;SDS011;59382;43.852;25.952;2022-07-29T00:26:51;20.65;;;6.25;;
71558;SDS011;59382;43.852;25.952;2022-07-29T00:29:17;11.35;;;5.32;;
71558;SDS011;59382;43.852;25.952;2022-07-29T00:31:43;11.57;;;4.35;;
71558;SDS011;59382;43.852;25.952;2022-07-29T00:34:09;6.28;;;4.22;;
71558;SDS011;59382;43.852;25.952;2022-07-29T00:36:54;8.20;;;4.20;;
71558;SDS011;59382;43.852;25.952;2022-07-29T00:39:20;6.78;;;4.53;;
71558;SDS011;59382;43.852;25.952;2022-07-29T00:41:45;8.75;;;4.07;;
71558;SDS011;59382;43.852;25.952;2022-07-29T00:44:11;3.88;;;3.58;;
71558;SDS011;59382;43.852;25.952;2022-07-29T00:46:36;6.80;;;3.65;;
71558;SDS011;59382;43.852;25.952;2022-07-29T00:49:02;7.72;;;4.65;;
71558;SDS011;59382;43.852;25.952;2022-07-29T00:51:27;8.45;;;4.32;;
71558;SDS011;59382;43.852;25.952;2022-07-29T00:53:53;7.65;;;3.63;;
71558;SDS011;59382;43.852;25.952;2022-07-29T00:56:19;6.22;;;3.90;;
71558;SDS011;59382;43.852;25.952;2022-07-29T00:58:46;4.75;;;3.60;;
71558;SDS011;59382;43.852;25.952;2022-07-29T01:01:13;4.13;;;3.30;;
71558;SDS011;59382;43.852;25.952;2022-07-29T01:03:38;8.90;;;3.85;;
71558;SDS011;59382;43.852;25.952;2022-07-29T01:06:04;6.80;;;3.60;;
71558;SDS011;59382;43.852;25.952;2022-07-29T01:08:31;3.90;;;3.22;;
71558;SDS011;59382;43.852;25.952;2022-07-29T01:10:58;5.65;;;3.67;;
71558;SDS011;59382;43.852;25.952;2022-07-29T01:13:25;5.40;;;3.60;;
71558;SDS011;59382;43.852;25.952;2022-07-29T01:16:02;7.18;;;4.88;;
71558;SDS011;59382;43.852;25.952;2022-07-29T01:18:37;9.93;;;4.50;;
71558;SDS011;59382;43.852;25.952;2022-07-29T01:23:59;6.25;;;4.47;;
71558;SDS011;59382;43.852;25.952;2022-07-29T01:29:21;9.50;;;4.45;;
71558;SDS011;59382;43.852;25.952;2022-07-29T01:32:01;6.43;;;3.58;;
71558;SDS011;59382;43.852;25.952;2022-07-29T01:34:39;6.60;;;3.75;;
71558;SDS011;59382;43.852;25.952;2022-07-29T01:39:42;10.40;;;4.43;;
71558;SDS011;59382;43.852;25.952;2022-07-29T01:48:10;9.57;;;4.68;;
71558;SDS011;59382;43.852;25.952;2022-07-29T01:50:34;5.85;;;3.85;;
71558;SDS011;59382;43.852;25.952;2022-07-29T01:53:04;9.50;;;4.32;;
71558;SDS011;59382;43.852;25.952;2022-07-29T01:55:35;9.82;;;4.38;;
71558;SDS011;59382;43.852;25.952;2022-07-29T01:58:05;9.13;;;4.18;;
71558;SDS011;59382;43.852;25.952;2022-07-29T02:00:33;9.18;;;3.65;;
71558;SDS011;59382;43.852;25.952;2022-07-29T02:03:04;8.40;;;3.85;;
71558;SDS011;59382;43.852;25.952;2022-07-29T02:05:34;6.07;;;4.20;;
71558;SDS011;59382;43.852;25.952;2022-07-29T02:08:00;6.00;;;3.70;;
71558;SDS011;59382;43.852;25.952;2022-07-29T02:10:29;10.52;;;4.28;;
71558;SDS011;59382;43.852;25.952;2022-07-29T02:12:57;11.45;;;4.22;;
71558;SDS011;59382;43.852;25.952;2022-07-29T02:15:24;10.50;;;4.40;;
71558;SDS011;59382;43.852;25.952;2022-07-29T02:17:58;9.63;;;4.28;;
71558;SDS011;59382;43.852;25.952;2022-07-29T02:20:26;6.85;;;3.90;;
71558;SDS011;59382;43.852;25.952;2022-07-29T02:22:55;10.32;;;4.15;;
71558;SDS011;59382;43.852;25.952;2022-07-29T02:25:23;11.27;;;4.75;;
71558;SDS011;59382;43.852;25.952;2022-07-29T02:27:50;8.88;;;4.10;;
71558;SDS011;59382;43.852;25.952;2022-07-29T02:30:17;9.63;;;4.70;;
71558;SDS011;59382;43.852;25.952;2022-07-29T02:32:44;9.90;;;4.22;;
71558;SDS011;59382;43.852;25.952;2022-07-29T02:35:12;9.65;;;4.47;;
71558;SDS011;59382;43.852;25.952;2022-07-29T02:37:39;8.00;;;4.30;;
71558;SDS011;59382;43.852;25.952;2022-07-29T02:40:08;16.70;;;4.47;;
71558;SDS011;59382;43.852;25.952;2022-07-29T02:42:36;5.20;;;4.38;;
71558;SDS011;59382;43.852;25.952;2022-07-29T02:45:04;8.20;;;4.78;;
71558;SDS011;59382;43.852;25.952;2022-07-29T02:47:34;7.22;;;4.40;;
71558;SDS011;59382;43.852;25.952;2022-07-29T02:53:37;4.95;;;4.20;;
71558;SDS011;59382;43.852;25.952;2022-07-29T02:55:45;5.70;;;4.00;;
71558;SDS011;59382;43.852;25.952;2022-07-29T02:58:32;9.00;;;4.53;;
71558;SDS011;59382;43.852;25.952;2022-07-29T03:01:03;6.38;;;4.50;;
71558;SDS011;59382;43.852;25.952;2022-07-29T03:03:36;7.32;;;4.45;;
71558;SDS011;59382;43.852;25.952;2022-07-29T03:06:04;6.63;;;4.50;;
71558;SDS011;59382;43.852;25.952;2022-07-29T03:08:32;8.07;;;4.97;;
71558;SDS011;59382;43.852;25.952;2022-07-29T03:10:59;5.05;;;4.55;;
71558;SDS011;59382;43.852;25.952;2022-07-29T03:13:26;5.32;;;4.43;;
71558;SDS011;59382;43.852;25.952;2022-07-29T03:15:55;5.50;;;4.30;;
71558;SDS011;59382;43.852;25.952;2022-07-29T03:18:23;6.35;;;4.07;;
71558;SDS011;59382;43.852;25.952;2022-07-29T03:20:49;6.13;;;5.25;;
71558;SDS011;59382;43.852;25.952;2022-07-29T03:23:19;4.20;;;3.80;;
71558;SDS011;59382;43.852;25.952;2022-07-29T03:25:47;6.57;;;4.85;;
71558;SDS011;59382;43.852;25.952;2022-07-29T03:28:14;12.00;;;5.22;;
71558;SDS011;59382;43.852;25.952;2022-07-29T03:30:40;6.43;;;4.95;;
71558;SDS011;59382;43.852;25.952;2022-07-29T03:33:05;8.52;;;4.90;;
71558;SDS011;59382;43.852;25.952;2022-07-29T03:35:31;7.40;;;5.38;;
71558;SDS011;59382;43.852;25.952;2022-07-29T03:37:57;5.82;;;5.00;;
71558;SDS011;59382;43.852;25.952;2022-07-29T03:40:28;10.18;;;4.82;;
71558;SDS011;59382;43.852;25.952;2022-07-29T03:43:03;9.55;;;5.10;;
71558;SDS011;59382;43.852;25.952;2022-07-29T03:45:32;17.88;;;4.82;;
71558;SDS011;59382;43.852;25.952;2022-07-29T03:48:05;10.18;;;4.70;;
71558;SDS011;59382;43.852;25.952;2022-07-29T03:50:33;8.15;;;4.15;;
71558;SDS011;59382;43.852;25.952;2022-07-29T03:53:00;9.48;;;4.30;;
71558;SDS011;59382;43.852;25.952;2022-07-29T03:55:26;11.07;;;4.43;;
71558;SDS011;59382;43.852;25.952;2022-07-29T03:57:54;9.75;;;3.40;;
71558;SDS011;59382;43.852;25.952;2022-07-29T04:00:22;6.05;;;3.58;;
71558;SDS011;59382;43.852;25.952;2022-07-29T04:02:49;6.07;;;3.60;;
71558;SDS011;59382;43.852;25.952;2022-07-29T04:05:18;4.25;;;3.28;;
71558;SDS011;59382;43.852;25.952;2022-07-29T04:07:47;4.00;;;3.60;;
71558;SDS011;59382;43.852;25.952;2022-07-29T04:10:13;10.43;;;4.18;;
71558;SDS011;59382;43.852;25.952;2022-07-29T04:12:44;10.10;;;4.70;;
71558;SDS011;59382;43.852;25.952;2022-07-29T04:15:10;5.88;;;4.10;;
71558;SDS011;59382;43.852;25.952;2022-07-29T04:17:36;7.18;;;3.67;;
71558;SDS011;59382;43.852;25.952;2022-07-29T04:20:02;16.50;;;5.03;;
71558;SDS011;59382;43.852;25.952;2022-07-29T04:22:28;11.38;;;5.20;;
71558;SDS011;59382;43.852;25.952;2022-07-29T04:24:54;9.38;;;4.70;;
71558;SDS011;59382;43.852;25.952;2022-07-29T04:27:19;9.77;;;5.03;;
71558;SDS011;59382;43.852;25.952;2022-07-29T04:29:45;14.88;;;5.00;;
71558;SDS011;59382;43.852;25.952;2022-07-29T04:32:10;8.35;;;4.80;;
71558;SDS011;59382;43.852;25.952;2022-07-29T04:34:36;6.15;;;4.20;;
71558;SDS011;59382;43.852;25.952;2022-07-29T04:37:02;9.23;;;4.97;;
71558;SDS011;59382;43.852;25.952;2022-07-29T04:39:27;7.45;;;5.10;;
71558;SDS011;59382;43.852;25.952;2022-07-29T04:41:53;16.48;;;4.82;;
71558;SDS011;59382;43.852;25.952;2022-07-29T04:44:19;17.23;;;4.97;;
71558;SDS011;59382;43.852;25.952;2022-07-29T04:46:44;9.25;;;4.97;;
71558;SDS011;59382;43.852;25.952;2022-07-29T04:49:10;10.90;;;4.97;;
71558;SDS011;59382;43.852;25.952;2022-07-29T04:51:36;12.48;;;4.55;;
71558;SDS011;59382;43.852;25.952;2022-07-29T04:54:01;7.35;;;4.15;;
71558;SDS011;59382;43.852;25.952;2022-07-29T04:56:27;6.90;;;4.13;;
71558;SDS011;59382;43.852;25.952;2022-07-29T04:58:52;8.18;;;4.32;;
71558;SDS011;59382;43.852;25.952;2022-07-29T05:01:18;15.63;;;4.05;;
71558;SDS011;59382;43.852;25.952;2022-07-29T05:03:44;7.03;;;4.03;;
71558;SDS011;59382;43.852;25.952;2022-07-29T05:06:10;8.07;;;3.80;;
71558;SDS011;59382;43.852;25.952;2022-07-29T05:08:36;6.50;;;3.33;;
71558;SDS011;59382;43.852;25.952;2022-07-29T05:11:02;8.57;;;3.50;;
71558;SDS011;59382;43.852;25.952;2022-07-29T05:13:28;16.63;;;3.83;;
71558;SDS011;59382;43.852;25.952;2022-07-29T05:15:54;6.93;;;3.60;;
71558;SDS011;59382;43.852;25.952;2022-07-29T05:18:19;12.20;;;3.42;;
71558;SDS011;59382;43.852;25.952;2022-07-29T05:20:45;13.32;;;3.60;;
71558;SDS011;59382;43.852;25.952;2022-07-29T05:23:10;8.20;;;3.00;;
71558;SDS011;59382;43.852;25.952;2022-07-29T05:25:38;6.13;;;3.10;;
71558;SDS011;59382;43.852;25.952;2022-07-29T05:28:06;8.15;;;3.47;;
71558;SDS011;59382;43.852;25.952;2022-07-29T05:30:31;9.48;;;3.30;;
71558;SDS011;59382;43.852;25.952;2022-07-29T05:32:57;12.77;;;3.45;;
71558;SDS011;59382;43.852;25.952;2022-07-29T05:35:23;6.38;;;3.30;;
71558;SDS011;59382;43.852;25.952;2022-07-29T05:37:48;4.80;;;3.33;;
71558;SDS011;59382;43.852;25.952;2022-07-29T05:40:14;6.40;;;3.55;;
71558;SDS011;59382;43.852;25.952;2022-07-29T05:42:40;6.18;;;3.72;;
71558;SDS011;59382;43.852;25.952;2022-07-29T05:45:06;10.60;;;4.15;;
71558;SDS011;59382;43.852;25.952;2022-07-29T05:47:32;7.28;;;3.28;;
71558;SDS011;59382;43.852;25.952;2022-07-29T05:49:57;8.35;;;3.30;;
71558;SDS011;59382;43.852;25.952;2022-07-29T05:52:23;9.18;;;3.58;;
71558;SDS011;59382;43.852;25.952;2022-07-29T05:54:49;3.72;;;3.30;;
71558;SDS011;59382;43.852;25.952;2022-07-29T05:57:15;7.40;;;3.53;;
71558;SDS011;59382;43.852;25.952;2022-07-29T05:59:44;9.38;;;3.20;;
71558;SDS011;59382;43.852;25.952;2022-07-29T06:02:11;5.68;;;3.55;;
71558;SDS011;59382;43.852;25.952;2022-07-29T06:04:37;13.68;;;3.38;;
71558;SDS011;59382;43.852;25.952;2022-07-29T06:07:03;6.07;;;3.88;;
71558;SDS011;59382;43.852;25.952;2022-07-29T06:09:28;11.43;;;3.85;;
71558;SDS011;59382;43.852;25.952;2022-07-29T06:11:55;6.47;;;3.70;;
71558;SDS011;59382;43.852;25.952;2022-07-29T06:14:20;13.52;;;4.00;;
71558;SDS011;59382;43.852;25.952;2022-07-29T06:16:48;12.85;;;3.75;;
71558;SDS011;59382;43.852;25.952;2022-07-29T06:19:15;11.32;;;3.42;;
71558;SDS011;59382;43.852;25.952;2022-07-29T06:21:41;8.20;;;3.35;;
71558;SDS011;59382;43.852;25.952;2022-07-29T06:24:08;10.80;;;3.90;;
71558;SDS011;59382;43.852;25.952;2022-07-29T06:26:35;14.88;;;3.85;;
71558;SDS011;59382;43.852;25.952;2022-07-29T06:29:00;11.25;;;4.28;;
71558;SDS011;59382;43.852;25.952;2022-07-29T06:31:27;6.15;;;3.22;;
71558;SDS011;59382;43.852;25.952;2022-07-29T06:33:52;5.07;;;3.03;;
71558;SDS011;59382;43.852;25.952;2022-07-29T06:36:18;9.15;;;2.90;;
71558;SDS011;59382;43.852;25.952;2022-07-29T06:38:43;10.63;;;3.03;;
71558;SDS011;59382;43.852;25.952;2022-07-29T06:41:09;7.50;;;3.03;;
71558;SDS011;59382;43.852;25.952;2022-07-29T06:43:40;7.68;;;3.20;;
71558;SDS011;59382;43.852;25.952;2022-07-29T06:46:07;3.58;;;2.67;;
71558;SDS011;59382;43.852;25.952;2022-07-29T06:48:35;2.97;;;2.10;;
71558;SDS011;59382;43.852;25.952;2022-07-29T06:51:01;5.40;;;2.60;;
71558;SDS011;59382;43.852;25.952;2022-07-29T06:53:29;4.43;;;2.72;;
71558;SDS011;59382;43.852;25.952;2022-07-29T06:55:55;10.35;;;3.20;;
71558;SDS011;59382;43.852;25.952;2022-07-29T06:58:23;4.97;;;3.53;;
71558;SDS011;59382;43.852;25.952;2022-07-29T07:00:49;11.55;;;5.15;;
71558;SDS011;59382;43.852;25.952;2022-07-29T07:03:15;8.35;;;3.15;;
71558;SDS011;59382;43.852;25.952;2022-07-29T07:05:46;9.38;;;3.55;;
71558;SDS011;59382;43.852;25.952;2022-07-29T07:08:12;8.27;;;3.80;;
71558;SDS011;59382;43.852;25.952;2022-07-29T07:10:38;5.78;;;3.70;;
71558;SDS011;59382;43.852;25.952;2022-07-29T07:13:04;6.82;;;3.47;;
71558;SDS011;59382;43.852;25.952;2022-07-29T07:15:30;13.15;;;6.53;;
71558;SDS011;59382;43.852;25.952;2022-07-29T07:17:56;8.57;;;3.70;;
71558;SDS011;59382;43.852;25.952;2022-07-29T07:20:22;8.18;;;3.08;;
71558;SDS011;59382;43.852;25.952;2022-07-29T07:22:49;3.38;;;2.65;;
71558;SDS011;59382;43.852;25.952;2022-07-29T07:25:15;3.80;;;2.60;;
71558;SDS011;59382;43.852;25.952;2022-07-29T07:27:42;5.90;;;2.25;;
71558;SDS011;59382;43.852;25.952;2022-07-29T07:30:11;5.07;;;1.55;;
71558;SDS011;59382;43.852;25.952;2022-07-29T07:32:37;7.35;;;1.98;;
71558;SDS011;59382;43.852;25.952;2022-07-29T07:35:04;2.83;;;2.00;;
71558;SDS011;59382;43.852;25.952;2022-07-29T07:37:31;5.45;;;2.00;;
71558;SDS011;59382;43.852;25.952;2022-07-29T07:39:57;3.85;;;2.60;;
71558;SDS011;59382;43.852;25.952;2022-07-29T07:42:23;5.32;;;2.00;;
71558;SDS011;59382;43.852;25.952;2022-07-29T07:44:49;2.08;;;1.85;;
71558;SDS011;59382;43.852;25.952;2022-07-29T07:47:15;2.35;;;1.80;;
71558;SDS011;59382;43.852;25.952;2022-07-29T07:49:45;2.85;;;1.83;;
71558;SDS011;59382;43.852;25.952;2022-07-29T07:52:12;1.70;;;1.60;;
71558;SDS011;59382;43.852;25.952;2022-07-29T07:54:38;2.58;;;2.00;;
71558;SDS011;59382;43.852;25.952;2022-07-29T07:57:04;3.05;;;1.58;;
71558;SDS011;59382;43.852;25.952;2022-07-29T07:59:29;2.50;;;1.70;;
71558;SDS011;59382;43.852;25.952;2022-07-29T08:01:55;4.45;;;2.00;;
71558;SDS011;59382;43.852;25.952;2022-07-29T08:04:25;1.77;;;1.67;;
71558;SDS011;59382;43.852;25.952;2022-07-29T08:06:50;4.13;;;2.50;;
71558;SDS011;59382;43.852;25.952;2022-07-29T08:09:19;2.80;;;1.52;;
71558;SDS011;59382;43.852;25.952;2022-07-29T08:11:46;1.70;;;1.60;;
71558;SDS011;59382;43.852;25.952;2022-07-29T08:14:11;1.58;;;1.48;;
71558;SDS011;59382;43.852;25.952;2022-07-29T08:16:39;1.70;;;1.50;;
71558;SDS011;59382;43.852;25.952;2022-07-29T08:19:07;2.65;;;1.95;;
71558;SDS011;59382;43.852;25.952;2022-07-29T08:21:33;2.10;;;1.60;;
71558;SDS011;59382;43.852;25.952;2022-07-29T08:23:59;1.38;;;1.27;;
71558;SDS011;59382;43.852;25.952;2022-07-29T08:26:43;1.50;;;1.40;;
71558;SDS011;59382;43.852;25.952;2022-07-29T08:29:09;1.98;;;1.80;;
71558;SDS011;59382;43.852;25.952;2022-07-29T08:31:36;3.38;;;1.60;;
71558;SDS011;59382;43.852;25.952;2022-07-29T08:34:02;1.88;;;1.70;;
71558;SDS011;59382;43.852;25.952;2022-07-29T08:36:29;2.78;;;1.90;;
71558;SDS011;59382;43.852;25.952;2022-07-29T08:38:55;3.17;;;1.80;;
71558;SDS011;59382;43.852;25.952;2022-07-29T08:41:21;2.72;;;1.67;;
71558;SDS011;59382;43.852;25.952;2022-07-29T08:43:57;1.67;;;1.58;;
71558;SDS011;59382;43.852;25.952;2022-07-29T08:48:48;4.70;;;1.80;;
71558;SDS011;59382;43.852;25.952;2022-07-29T08:51:16;5.22;;;1.85;;
71558;SDS011;59382;43.852;25.952;2022-07-29T08:53:44;3.50;;;1.80;;
71558;SDS011;59382;43.852;25.952;2022-07-29T08:56:11;1.77;;;1.52;;
71558;SDS011;59382;43.852;25.952;2022-07-29T08:58:44;3.60;;;2.00;;
71558;SDS011;59382;43.852;25.952;2022-07-29T09:01:12;3.40;;;2.08;;
71558;SDS011;59382;43.852;25.952;2022-07-29T09:03:41;8.85;;;2.00;;
71558;SDS011;59382;43.852;25.952;2022-07-29T09:06:09;2.83;;;1.98;;
71558;SDS011;59382;43.852;25.952;2022-07-29T09:08:42;3.40;;;1.92;;
71558;SDS011;59382;43.852;25.952;2022-07-29T09:11:09;3.05;;;1.80;;
71558;SDS011;59382;43.852;25.952;2022-07-29T09:13:36;5.20;;;1.60;;
71558;SDS011;59382;43.852;25.952;2022-07-29T09:16:02;1.90;;;1.80;;
71558;SDS011;59382;43.852;25.952;2022-07-29T09:18:35;10.35;;;2.17;;
71558;SDS011;59382;43.852;25.952;2022-07-29T09:21:02;2.20;;;2.03;;
71558;SDS011;59382;43.852;25.952;2022-07-29T09:26:36;2.22;;;1.83;;
71558;SDS011;59382;43.852;25.952;2022-07-29T09:29:10;2.03;;;1.80;;
71558;SDS011;59382;43.852;25.952;2022-07-29T09:31:41;4.28;;;2.70;;
71558;SDS011;59382;43.852;25.952;2022-07-29T09:34:09;2.10;;;1.90;;
71558;SDS011;59382;43.852;25.952;2022-07-29T09:36:45;5.80;;;1.63;;
71558;SDS011;59382;43.852;25.952;2022-07-29T09:39:12;1.52;;;1.42;;
71558;SDS011;59382;43.852;25.952;2022-07-29T09:41:53;3.08;;;1.80;;
71558;SDS011;59382;43.852;25.952;2022-07-29T09:44:23;2.17;;;2.00;;
71558;SDS011;59382;43.852;25.952;2022-07-29T09:49:21;2.17;;;1.80;;
71558;SDS011;59382;43.852;25.952;2022-07-29T09:51:47;2.03;;;1.80;;
71558;SDS011;59382;43.852;25.952;2022-07-29T09:54:25;2.10;;;1.90;;
71558;SDS011;59382;43.852;25.952;2022-07-29T09:56:52;2.88;;;2.67;;
71558;SDS011;59382;43.852;25.952;2022-07-29T09:59:18;6.60;;;2.10;;
71558;SDS011;59382;43.852;25.952;2022-07-29T10:01:48;9.85;;;2.58;;
71558;SDS011;59382;43.852;25.952;2022-07-29T10:04:15;4.45;;;1.90;;
71558;SDS011;59382;43.852;25.952;2022-07-29T10:06:57;1.95;;;1.77;;
71558;SDS011;59382;43.852;25.952;2022-07-29T10:09:27;2.05;;;1.85;;
71558;SDS011;59382;43.852;25.952;2022-07-29T10:12:04;3.40;;;1.70;;
71558;SDS011;59382;43.852;25.952;2022-07-29T10:14:32;1.70;;;1.60;;
71558;SDS011;59382;43.852;25.952;2022-07-29T10:17:01;3.58;;;1.70;;
71558;SDS011;59382;43.852;25.952;2022-07-29T10:19:32;2.88;;;1.60;;
71558;SDS011;59382;43.852;25.952;2022-07-29T10:22:00;8.43;;;2.55;;
71558;SDS011;59382;43.852;25.952;2022-07-29T10:24:27;3.40;;;1.90;;
71558;SDS011;59382;43.852;25.952;2022-07-29T10:26:58;2.28;;;2.08;;
71558;SDS011;59382;43.852;25.952;2022-07-29T10:29:28;2.90;;;2.00;;
71558;SDS011;59382;43.852;25.952;2022-07-29T10:43:43;2.67;;;1.90;;
71558;SDS011;59382;43.852;25.952;2022-07-29T10:46:11;6.82;;;1.95;;
71558;SDS011;59382;43.852;25.952;2022-07-29T10:52:12;1.77;;;1.67;;
71558;SDS011;59382;43.852;25.952;2022-07-29T10:54:39;9.20;;;1.77;;
71558;SDS011;59382;43.852;25.952;2022-07-29T11:08:16;3.03;;;1.90;;
71558;SDS011;59382;43.852;25.952;2022-07-29T11:10:45;6.93;;;2.20;;
71558;SDS011;59382;43.852;25.952;2022-07-29T11:13:11;3.13;;;1.80;;
71558;SDS011;59382;43.852;25.952;2022-07-29T11:15:52;2.42;;;1.63;;
71558;SDS011;59382;43.852;25.952;2022-07-29T11:18:19;2.30;;;2.10;;
71558;SDS011;59382;43.852;25.952;2022-07-29T11:20:46;3.63;;;2.13;;
71558;SDS011;59382;43.852;25.952;2022-07-29T11:31:17;1.70;;;1.60;;
71558;SDS011;59382;43.852;25.952;2022-07-29T11:34:23;3.25;;;1.85;;
71558;SDS011;59382;43.852;25.952;2022-07-29T11:39:41;4.15;;;2.00;;
71558;SDS011;59382;43.852;25.952;2022-07-29T11:47:22;3.10;;;1.88;;
71558;SDS011;59382;43.852;25.952;2022-07-29T11:49:52;2.05;;;1.77;;
71558;SDS011;59382;43.852;25.952;2022-07-29T11:52:22;2.28;;;1.80;;
71558;SDS011;59382;43.852;25.952;2022-07-29T11:54:48;2.78;;;2.00;;
71558;SDS011;59382;43.852;25.952;2022-07-29T11:57:16;1.90;;;1.80;;
71558;SDS011;59382;43.852;25.952;2022-07-29T11:59:44;1.75;;;1.65;;
71558;SDS011;59382;43.852;25.952;2022-07-29T12:02:11;2.00;;;1.90;;
71558;SDS011;59382;43.852;25.952;2022-07-29T12:04:48;2.35;;;1.60;;
71558;SDS011;59382;43.852;25.952;2022-07-29T12:07:18;5.45;;;2.40;;
71558;SDS011;59382;43.852;25.952;2022-07-29T12:09:51;2.20;;;2.00;;
71558;SDS011;59382;43.852;25.952;2022-07-29T12:12:20;2.15;;;2.00;;
71558;SDS011;59382;43.852;25.952;2022-07-29T12:14:46;2.42;;;2.22;;
71558;SDS011;59382;43.852;25.952;2022-07-29T12:17:28;2.88;;;2.40;;
71558;SDS011;59382;43.852;25.952;2022-07-29T12:19:56;2.13;;;2.00;;
71558;SDS011;59382;43.852;25.952;2022-07-29T12:24:52;3.28;;;2.38;;
71558;SDS011;59382;43.852;25.952;2022-07-29T12:27:19;5.85;;;2.50;;
71558;SDS011;59382;43.852;25.952;2022-07-29T12:30:03;2.20;;;1.80;;
71558;SDS011;59382;43.852;25.952;2022-07-29T12:32:38;3.13;;;1.90;;
71558;SDS011;59382;43.852;25.952;2022-07-29T12:35:05;2.85;;;2.10;;
71558;SDS011;59382;43.852;25.952;2022-07-29T12:37:36;2.38;;;2.05;;
71558;SDS011;59382;43.852;25.952;2022-07-29T12:40:03;1.75;;;1.65;;
71558;SDS011;59382;43.852;25.952;2022-07-29T12:42:30;2.13;;;1.67;;
71558;SDS011;59382;43.852;25.952;2022-07-29T12:44:56;2.13;;;1.80;;
71558;SDS011;59382;43.852;25.952;2022-07-29T12:47:22;3.17;;;1.70;;
71558;SDS011;59382;43.852;25.952;2022-07-29T12:49:49;2.75;;;2.33;;
71558;SDS011;59382;43.852;25.952;2022-07-29T12:54:55;3.17;;;1.88;;
71558;SDS011;59382;43.852;25.952;2022-07-29T12:57:20;5.85;;;2.40;;
71558;SDS011;59382;43.852;25.952;2022-07-29T13:02:53;4.05;;;2.20;;
71558;SDS011;59382;43.852;25.952;2022-07-29T13:05:22;2.13;;;1.88;;
71558;SDS011;59382;43.852;25.952;2022-07-29T13:07:48;2.72;;;1.90;;
71558;SDS011;59382;43.852;25.952;2022-07-29T13:10:18;2.25;;;1.60;;
71558;SDS011;59382;43.852;25.952;2022-07-29T13:13:02;3.95;;;1.85;;
71558;SDS011;59382;43.852;25.952;2022-07-29T13:15:45;2.03;;;1.88;;
71558;SDS011;59382;43.852;25.952;2022-07-29T13:18:29;4.78;;;1.95;;
71558;SDS011;59382;43.852;25.952;2022-07-29T13:20:57;4.55;;;2.38;;
71558;SDS011;59382;43.852;25.952;2022-07-29T13:23:44;2.35;;;1.80;;
71558;SDS011;59382;43.852;25.952;2022-07-29T13:26:09;6.50;;;2.88;;
71558;SDS011;59382;43.852;25.952;2022-07-29T13:28:41;4.15;;;2.30;;
71558;SDS011;59382;43.852;25.952;2022-07-29T13:31:06;3.20;;;2.20;;
71558;SDS011;59382;43.852;25.952;2022-07-29T13:33:32;3.75;;;1.90;;
71558;SDS011;59382;43.852;25.952;2022-07-29T13:35:58;2.00;;;1.90;;
71558;SDS011;59382;43.852;25.952;2022-07-29T13:38:26;3.92;;;2.13;;
71558;SDS011;59382;43.852;25.952;2022-07-29T13:40:52;1.90;;;1.80;;
71558;SDS011;59382;43.852;25.952;2022-07-29T13:43:23;2.20;;;1.90;;
71558;SDS011;59382;43.852;25.952;2022-07-29T13:45:52;4.30;;;1.98;;
71558;SDS011;59382;43.852;25.952;2022-07-29T13:48:17;3.28;;;2.00;;
71558;SDS011;59382;43.852;25.952;2022-07-29T13:50:43;3.20;;;2.05;;
71558;SDS011;59382;43.852;25.952;2022-07-29T13:53:09;3.15;;;1.67;;
71558;SDS011;59382;43.852;25.952;2022-07-29T13:55:35;5.53;;;1.85;;
71558;SDS011;59382;43.852;25.952;2022-07-29T13:58:00;2.85;;;1.80;;
71558;SDS011;59382;43.852;25.952;2022-07-29T14:00:26;5.32;;;2.42;;
71558;SDS011;59382;43.852;25.952;2022-07-29T14:02:51;2.42;;;2.00;;
71558;SDS011;59382;43.852;25.952;2022-07-29T14:05:17;2.83;;;2.55;;
71558;SDS011;59382;43.852;25.952;2022-07-29T14:07:43;4.22;;;2.08;;
71558;SDS011;59382;43.852;25.952;2022-07-29T14:10:09;2.55;;;2.05;;
71558;SDS011;59382;43.852;25.952;2022-07-29T14:12:35;3.92;;;2.22;;
71558;SDS011;59382;43.852;25.952;2022-07-29T14:15:01;2.55;;;2.17;;
71558;SDS011;59382;43.852;25.952;2022-07-29T14:17:26;2.30;;;2.10;;
71558;SDS011;59382;43.852;25.952;2022-07-29T14:19:52;3.00;;;2.60;;
71558;SDS011;59382;43.852;25.952;2022-07-29T14:22:17;5.53;;;2.30;;
71558;SDS011;59382;43.852;25.952;2022-07-29T14:24:44;3.05;;;2.30;;
71558;SDS011;59382;43.852;25.952;2022-07-29T14:27:10;2.67;;;1.90;;
71558;SDS011;59382;43.852;25.952;2022-07-29T14:29:36;2.85;;;1.90;;
71558;SDS011;59382;43.852;25.952;2022-07-29T14:32:02;4.05;;;2.05;;
71558;SDS011;59382;43.852;25.952;2022-07-29T14:34:28;4.00;;;2.03;;
71558;SDS011;59382;43.852;25.952;2022-07-29T14:36:54;5.47;;;2.20;;
71558;SDS011;59382;43.852;25.952;2022-07-29T14:39:21;2.60;;;2.40;;
71558;SDS011;59382;43.852;25.952;2022-07-29T14:41:50;4.93;;;2.72;;
71558;SDS011;59382;43.852;25.952;2022-07-29T14:44:17;5.85;;;2.70;;
71558;SDS011;59382;43.852;25.952;2022-07-29T14:46:46;3.65;;;2.63;;
71558;SDS011;59382;43.852;25.952;2022-07-29T14:49:11;5.05;;;2.90;;
71558;SDS011;59382;43.852;25.952;2022-07-29T14:51:37;3.15;;;2.78;;
71558;SDS011;59382;43.852;25.952;2022-07-29T14:54:02;5.78;;;3.03;;
71558;SDS011;59382;43.852;25.952;2022-07-29T14:56:28;5.03;;;2.90;;
71558;SDS011;59382;43.852;25.952;2022-07-29T14:58:56;3.45;;;2.88;;
71558;SDS011;59382;43.852;25.952;2022-07-29T15:01:28;7.97;;;2.90;;
71558;SDS011;59382;43.852;25.952;2022-07-29T15:03:54;6.65;;;2.58;;
71558;SDS011;59382;43.852;25.952;2022-07-29T15:06:20;5.05;;;2.80;;
71558;SDS011;59382;43.852;25.952;2022-07-29T15:08:45;2.78;;;2.58;;
71558;SDS011;59382;43.852;25.952;2022-07-29T15:11:19;4.40;;;2.47;;
71558;SDS011;59382;43.852;25.952;2022-07-29T15:13:46;3.03;;;2.38;;
71558;SDS011;59382;43.852;25.952;2022-07-29T15:16:23;3.72;;;2.17;;
71558;SDS011;59382;43.852;25.952;2022-07-29T15:18:49;3.47;;;2.38;;
71558;SDS011;59382;43.852;25.952;2022-07-29T15:21:15;3.83;;;2.60;;
71558;SDS011;59382;43.852;25.952;2022-07-29T15:23:40;3.08;;;2.75;;
71558;SDS011;59382;43.852;25.952;2022-07-29T15:26:09;2.55;;;2.35;;
71558;SDS011;59382;43.852;25.952;2022-07-29T15:28:35;4.68;;;2.35;;
71558;SDS011;59382;43.852;25.952;2022-07-29T15:31:03;4.43;;;1.95;;
71558;SDS011;59382;43.852;25.952;2022-07-29T15:33:29;4.25;;;1.98;;
71558;SDS011;59382;43.852;25.952;2022-07-29T15:35:55;2.38;;;2.13;;
71558;SDS011;59382;43.852;25.952;2022-07-29T15:38:21;2.97;;;2.20;;
71558;SDS011;59382;43.852;25.952;2022-07-29T15:40:50;2.38;;;2.17;;
71558;SDS011;59382;43.852;25.952;2022-07-29T15:43:15;2.53;;;2.33;;
71558;SDS011;59382;43.852;25.952;2022-07-29T15:45:41;4.78;;;2.72;;
71558;SDS011;59382;43.852;25.952;2022-07-29T15:48:30;4.93;;;3.00;;
71558;SDS011;59382;43.852;25.952;2022-07-29T15:50:56;4.07;;;2.10;;
71558;SDS011;59382;43.852;25.952;2022-07-29T15:53:23;2.53;;;2.33;;